Terminal Aerodrome Forecast
Issued by NWS Shreveport, LA

Home | Current Version | Previous Version | Text Only | Print | Product List | Glossary On
Versions: 1 2 3 4 5 6 7 8 9 10 11 12 13 14 15 16 17
000
FTUS44 KSHV 221247 AAB
TAFSHV
TAF AMD
KSHV 221247Z 2213/2312 00000KT P6SM SKC
     FM221500 15005KT P6SM SCT025 SCT035
     FM221800 15007KT P6SM SCT035 SCT045
     FM230000 13003KT P6SM SCT050=

USA.gov is the U.S. government's official web portal to all federal, state and local government web resources and services.